Flight Track Log - Related Links

Times and Time Zones

All times are in EDT time to prevent confusion due to time zone crossing. See the DKT81 flight status page for this flight to view local times or setup timezone preferences in your user account.

Time Position Orientation Groundspeed Altitude Reporting Facility
EDT Latitude Longitude Course Direction KTS MPH feet Rate Location/Type
Mon 08:34:52 AM 48.1200 -103.5761 128° Southeast 188 216 6,900  Level Salt Lake Center
Mon 08:35:53 AM 48.0861 -103.5114 119° Southeast 195 224 8,900 1,934 Climbing Salt Lake Center
Mon 08:36:53 AM 48.0583 -103.4367 125° Southeast 201 231 10,800 1,884 Climbing Salt Lake Center
Mon 08:37:54 AM 48.0244 -103.3633 126° Southeast 209 241 12,700 1,770 Climbing Salt Lake Center
Mon 08:38:55 AM 47.9903 -103.2925 132° Southeast 211 243 14,400 1,636 Climbing Salt Lake Center
Mon 08:39:55 AM 47.9508 -103.2272 133° Southeast 211 243 16,000 1,388 Climbing Salt Lake Center
Mon 08:40:56 AM 47.9103 -103.1625 131° Southeast 211 243 17,200 1,339 Climbing Salt Lake Center
Mon 08:41:56 AM 47.8686 -103.0906 129° Southeast 218 251 18,700 942 Climbing Salt Lake Center
Mon 08:42:57 AM 47.8264 -103.0125 132° Southeast 230 265 19,100 197 Climbing Salt Lake Center
Mon 08:43:58 AM 47.7742 -102.9264 127° Southeast 260 299 19,100 -50 Level Salt Lake Center
Mon 08:44:58 AM 47.7239 -102.8272 133° Southeast 286 329 19,000 -99 Descending Salt Lake Center
Mon 08:45:59 AM 47.6672 -102.7361 124° Southeast 297 342 18,900 -98 Descending Salt Lake Center
Mon 08:47:00 AM 47.6208 -102.6328 135° Southeast 300 345 18,800 99 Descending Salt Lake Center
Mon 08:48:00 AM 47.5517 -102.5289 144° Southeast 296 341 19,100 149 Climbing Salt Lake Center
Mon 08:49:01 AM 47.4869 -102.4594 140° Southeast 291 335 19,100 -49 Level Salt Lake Center
Mon 08:50:02 AM 47.4247 -102.3814 135° Southeast 294 338 19,000 -48 Descending Salt Lake Center
Mon 08:51:07 AM 47.3672 -102.2967 137° Southeast 299 344 19,000  Level Minneapolis Center
Mon 08:52:06 AM 47.3069 -102.2128 129° Southeast 299 344 19,000  Level Minneapolis Center
Mon 08:53:07 AM 47.2556 -102.1186 133° Southeast 304 350 19,000  Level Minneapolis Center
Mon 08:54:06 AM 47.1978 -102.0264 119° Southeast 304 350 19,000  Level Minneapolis Center
Mon 08:55:07 AM 47.1558 -101.9156 132° Southeast 310 357 19,000  Level Minneapolis Center
Mon 08:56:06 AM 47.0961 -101.8172 134° Southeast 303 349 19,000  Level Minneapolis Center
Mon 08:57:07 AM 47.0397 -101.7319 145° Southeast 298 343 19,000 -50 Level Minneapolis Center
Mon 08:58:07 AM 46.9697 -101.6603 135° Southeast 298 343 18,900 50 Descending Minneapolis Center
Mon 08:59:06 AM 46.9128 -101.5783 121° Southeast 298 343 19,100 100 Climbing Minneapolis Center
Mon 09:00:07 AM 46.8681 -101.4711 136° Southeast 298 343 19,100 50 Level Minneapolis Center
Mon 09:01:06 AM 46.8092 -101.3894 130° Southeast 298 343 19,200 50 Climbing Minneapolis Center
Mon 09:02:07 AM 46.7531 -101.2931 139° Southeast 298 343 19,200  Level Minneapolis Center
Mon 09:03:07 AM 46.6917 -101.2142 139° Southeast 304 350 19,200 -50 Level Minneapolis Center
Mon 09:04:06 AM 46.6264 -101.1322 129° Southeast 304 350 19,100 -100 Descending Minneapolis Center
Mon 09:05:07 AM 46.5722 -101.0367 130° Southeast 309 356 19,000 -100 Descending Minneapolis Center
Mon 09:06:06 AM 46.5161 -100.9381 137° Southeast 309 356 18,900 -50 Descending Minneapolis Center
Mon 09:07:06 AM 46.4567 -100.8575 139° Southeast 309 356 18,900 -50 Level Minneapolis Center
Mon 09:08:07 AM 46.3928 -100.7764 120° Southeast 304 350 18,800 -50 Descending Minneapolis Center
Mon 09:09:07 AM 46.3517 -100.6714 125° Southeast 298 343 18,800  Level Minneapolis Center
Mon 09:10:06 AM 46.3036 -100.5717 133° Southeast 298 343 18,800 100 Level Minneapolis Center
Mon 09:11:07 AM 46.2483 -100.4861 143° Southeast 298 343 19,000 99 Climbing Minneapolis Center
Mon 09:12:07 AM 46.1858 -100.4181 132° Southeast 293 337 19,000 50 Level Minneapolis Center
Mon 09:13:06 AM 46.1306 -100.3300 138° Southeast 293 337 19,100 50 Climbing Minneapolis Center
Mon 09:14:06 AM 46.0686 -100.2503 142° Southeast 298 343 19,100  Level Minneapolis Center
Mon 09:15:06 AM 46.0061 -100.1797 131° Southeast 298 343 19,100 -50 Level Minneapolis Center
Mon 09:16:07 AM 45.9508 -100.0892 140° Southeast 293 337 19,000 -50 Descending Minneapolis Center
Mon 09:17:06 AM 45.8906 -100.0161 131° Southeast 293 337 19,000 50 Level Minneapolis Center
Mon 09:18:06 AM 45.8353 -99.9261 138° Southeast 293 337 19,100 50 Climbing Minneapolis Center
Mon 09:19:06 AM 45.7750 -99.8475 143° Southeast 298 343 19,100  Level Minneapolis Center
Mon 09:20:06 AM 45.7100 -99.7775 138° Southeast 298 343 19,100  Level Minneapolis Center
Mon 09:21:06 AM 45.6556 -99.7086 138° Southeast 293 337 19,100  Level Minneapolis Center
Mon 09:22:06 AM 45.5931 -99.6275 131° Southeast 293 337 19,100 -99 Level Minneapolis Center
Mon 09:23:07 AM 45.5378 -99.5353 130° Southeast 299 344 18,900 -99 Descending Minneapolis Center
Mon 09:24:07 AM 45.4861 -99.4464 130° Southeast 299 344 18,900  Level Minneapolis Center
Mon 09:25:07 AM 45.4325 -99.3550 130° Southeast 299 344 18,900  Level Minneapolis Center
Mon 09:26:07 AM 45.3769 -99.2603 134° Southeast 299 344 18,900 50 Level Minneapolis Center
Mon 09:27:06 AM 45.3206 -99.1775 136° Southeast 299 344 19,000 101 Climbing Minneapolis Center
Mon 09:28:06 AM 45.2603 -99.0944 121° Southeast 299 344 19,100 50 Climbing Minneapolis Center
Mon 09:29:07 AM 45.2172 -98.9928 134° Southeast 299 344 19,100  Level Minneapolis Center
Mon 09:30:06 AM 45.1589 -98.9075 134° Southeast 299 344 19,100 -50 Level Minneapolis Center
Mon 09:31:06 AM 45.1006 -98.8225 143° Southeast 299 344 19,000 -100 Descending Minneapolis Center
Mon 09:32:06 AM 45.0350 -98.7514 129° Southeast 299 344 18,900  Descending Minneapolis Center
Mon 09:33:07 AM 44.9828 -98.6614 138° Southeast 299 344 19,000 50 Climbing Minneapolis Center
Mon 09:34:06 AM 44.9197 -98.5822 134° Southeast 299 344 19,000  Level Minneapolis Center
Mon 09:35:06 AM 44.8611 -98.4978 135° Southeast 304 350 19,000  Level Minneapolis Center
Mon 09:36:06 AM 44.8003 -98.4133 123° Southeast 304 350 19,000  Level Minneapolis Center
Mon 09:37:06 AM 44.7547 -98.3128 133° Southeast 304 350 19,000  Level Minneapolis Center
Mon 09:38:07 AM 44.6900 -98.2167 132° Southeast 309 356 19,000  Level Minneapolis Center
Mon 09:39:06 AM 44.6353 -98.1303 132° Southeast 304 350 19,000  Level Minneapolis Center
Mon 09:40:06 AM 44.5803 -98.0442 132° Southeast 297 342 19,000 50 Level Minneapolis Center
Mon 09:41:07 AM 44.5256 -97.9583 130° Southeast 297 342 19,100 99 Climbing Minneapolis Center
Mon 09:42:07 AM 44.4728 -97.8697 137° Southeast 297 342 19,200 50 Climbing Minneapolis Center
Mon 09:43:07 AM 44.4133 -97.7925 135° Southeast 297 342 19,200  Level Minneapolis Center
Mon 09:44:06 AM 44.3539 -97.7094 134° Southeast 291 335 19,200 -150 Level Minneapolis Center
Mon 09:45:07 AM 44.3025 -97.6361 140° Southeast 291 335 18,900 -550 Descending Minneapolis Center
Mon 09:46:06 AM 44.2386 -97.5619 133° Southeast 296 341 18,100 -800 Descending Minneapolis Center
Mon 09:47:07 AM 44.1772 -97.4706 134° Southeast 312 359 17,300 -1,050 Descending Minneapolis Center
Mon 09:48:06 AM 44.1139 -97.3794 135° Southeast 317 365 16,000 -1,200 Descending Minneapolis Center
Mon 09:49:07 AM 44.0483 -97.2883 135° Southeast 323 372 14,900 -1,587 Descending Minneapolis Center
Mon 09:50:07 AM 43.9844 -97.2003 125° Southeast 323 372 12,800 -2,269 Descending Minneapolis Center
Mon 09:51:06 AM 43.9317 -97.0961 121° Southeast 318 366 10,400 -2,250 Descending Minneapolis Center
Mon 09:52:07 AM 43.8814 -96.9806 125° Southeast 323 372 8,300 -1,950 Descending Minneapolis Center
Mon 09:53:06 AM 43.8322 -96.8825 119° Southeast 318 366 6,500 -1,800 Descending Minneapolis Center
Mon 09:54:07 AM 43.7936 -96.7856 121° Southeast 303 349 4,700 -1,600 Descending Minneapolis Center
Mon 09:55:06 AM 43.7544 -96.6969 134° Southeast 288 331 3,300 -807 Descending Minneapolis Center
Mon 09:56:06 AM 43.7106 -96.6342 209° Southwest 258 297 3,100 -99 Descending Minneapolis Center
Mon 09:57:07 AM 43.6614 -96.6717 213° Southwest 169 194 3,100 -500 Level Minneapolis Center
Mon 09:58:06 AM 43.6253 -96.7042 204° Southwest 162 186 2,100 -655 Descending Minneapolis Center
Mon 09:59:06 AM 43.5911 -96.7253 204° Southwest 151 174 1,800 -300 Descending Minneapolis Center

Login

Don't have an account? Register now (free) for customized features, flight alerts, and more!